Time;durP1;ratioP1;P1;durP2;ratioP2;P2;SDS_P1;SDS_P2;PMS_P1;PMS_P2;Temp;Humidity;BMP_temperature;BMP_pressure;BME280_temperature;BME280_humidity;BME280_pressure;Samples;Min_cycle;Max_cycle;Signal;HPM_P1;HPM_P2
2021/11/06 00:01:43;;;;;;;19.33;14.80;;;6.50;99.90;;;;;;5053725;28;20167;-67
2021/11/06 00:04:09;;;;;;;16.77;14.40;;;6.40;99.90;;;;;;5053718;28;20250;-68
2021/11/06 00:06:35;;;;;;;16.43;13.80;;;6.40;99.90;;;;;;5053606;28;20545;-66
2021/11/06 00:09:00;;;;;;;17.93;14.90;;;6.40;99.90;;;;;;5052278;28;20179;-65
2021/11/06 00:11:26;;;;;;;16.87;14.73;;;6.40;99.90;;;;;;5052947;28;20643;-66
2021/11/06 00:13:52;;;;;;;16.03;14.30;;;6.40;99.90;;;;;;5052435;28;20210;-65
2021/11/06 00:16:17;;;;;;;16.77;14.43;;;6.40;99.90;;;;;;5052769;28;20203;-66
2021/11/06 00:18:43;;;;;;;17.50;15.67;;;6.40;99.90;;;;;;5052287;28;20675;-66
2021/11/06 00:21:09;;;;;;;17.30;15.70;;;6.40;99.90;;;;;;5052237;28;20193;-65
2021/11/06 00:23:34;;;;;;;17.13;15.33;;;6.40;99.90;;;;;;5052462;28;20260;-66
2021/11/06 00:26:00;;;;;;;16.37;14.67;;;6.40;99.90;;;;;;5052748;28;20585;-65
2021/11/06 00:28:26;;;;;;;17.53;14.63;;;6.40;99.90;;;;;;5052388;28;20262;-65
2021/11/06 00:30:51;;;;;;;18.93;14.63;;;6.30;99.90;;;;;;5051981;28;20171;-66
2021/11/06 00:33:17;;;;;;;16.00;12.93;;;6.30;99.90;;;;;;5052219;28;20183;-64
2021/11/06 00:35:43;;;;;;;23.10;14.80;;;6.30;99.90;;;;;;5052108;28;20175;-66
2021/11/06 00:38:09;;;;;;;19.40;14.33;;;6.30;99.90;;;;;;5052392;28;20705;-67
2021/11/06 00:40:34;;;;;;;17.07;13.73;;;6.30;99.90;;;;;;5051861;28;20175;-63
2021/11/06 00:43:00;;;;;;;18.67;13.33;;;6.30;99.90;;;;;;5051983;28;20209;-63
2021/11/06 00:45:26;;;;;;;21.07;13.67;;;6.30;99.90;;;;;;5052140;28;20699;-64
2021/11/06 00:47:52;;;;;;;19.50;13.37;;;6.30;99.90;;;;;;5052202;28;20171;-65
2021/11/06 00:50:18;;;;;;;15.90;13.00;;;6.30;99.90;;;;;;5051954;28;20181;-66
2021/11/06 00:52:46;;;;;;;14.70;12.93;;;6.20;99.90;;;;;;5051672;28;20182;-66
2021/11/06 00:55:13;;;;;;;16.60;12.33;;;6.20;99.90;;;;;;5051902;28;20202;-66
2021/11/06 00:57:38;;;;;;;15.67;11.53;;;6.10;99.90;;;;;;5051791;28;20213;-66
2021/11/06 01:00:11;;;;;;;14.57;12.60;;;6.10;99.90;;;;;;5052393;28;20175;-68
2021/11/06 01:02:37;;;;;;;16.27;12.67;;;6.00;99.90;;;;;;5052312;28;20186;-68
2021/11/06 01:05:05;;;;;;;16.33;12.13;;;6.00;99.90;;;;;;5052221;28;20213;-68
2021/11/06 01:07:32;;;;;;;21.53;13.07;;;6.00;99.90;;;;;;5052664;28;20186;-68
2021/11/06 01:09:58;;;;;;;16.17;13.03;;;6.00;99.90;;;;;;5052052;28;20187;-67
2021/11/06 01:12:23;;;;;;;20.03;12.37;;;6.00;99.90;;;;;;5052414;28;20654;-68
2021/11/06 01:14:49;;;;;;;15.73;14.07;;;5.90;99.90;;;;;;5051826;28;20305;-68
2021/11/06 01:17:14;;;;;;;18.67;12.87;;;5.90;99.90;;;;;;5052591;28;20579;-68
2021/11/06 01:19:40;;;;;;;18.07;13.90;;;6.00;99.90;;;;;;5051913;28;20205;-68
2021/11/06 01:22:06;;;;;;;20.97;14.73;;;6.00;99.90;;;;;;5052281;28;20475;-64
2021/11/06 01:24:31;;;;;;;26.03;15.93;;;5.90;99.90;;;;;;5051368;28;20282;-63
2021/11/06 01:26:57;;;;;;;24.07;15.07;;;6.00;99.90;;;;;;5051161;28;20210;-63
2021/11/06 01:29:24;;;;;;;31.77;15.80;;;6.00;99.90;;;;;;5050674;28;20697;-63
2021/11/06 01:31:49;;;;;;;27.00;15.50;;;6.00;99.90;;;;;;5051469;28;20175;-63
2021/11/06 01:34:15;;;;;;;17.80;14.27;;;6.10;99.90;;;;;;5051090;28;20287;-63
2021/11/06 01:36:41;;;;;;;18.30;14.17;;;6.10;99.90;;;;;;5051535;28;20166;-65
2021/11/06 01:39:06;;;;;;;17.57;14.13;;;6.10;99.90;;;;;;5050755;28;20182;-66
2021/11/06 01:41:34;;;;;;;18.20;13.73;;;6.10;99.90;;;;;;5051453;28;20181;-65
2021/11/06 01:44:00;;;;;;;15.10;12.80;;;6.10;99.90;;;;;;5051056;28;20215;-65
2021/11/06 01:46:26;;;;;;;20.53;14.13;;;6.10;99.90;;;;;;5051353;28;20170;-65
2021/11/06 01:48:52;;;;;;;18.93;14.63;;;6.10;99.90;;;;;;5050842;28;20540;-65
2021/11/06 01:51:18;;;;;;;18.53;13.07;;;6.20;99.90;;;;;;5051155;28;20189;-65
2021/11/06 01:53:45;;;;;;;15.87;13.60;;;6.20;99.90;;;;;;5050835;28;20206;-66
2021/11/06 01:56:11;;;;;;;20.13;14.37;;;6.20;99.90;;;;;;5051324;28;20198;-66
2021/11/06 01:58:37;;;;;;;13.97;12.60;;;6.20;99.90;;;;;;5051095;28;20183;-64
2021/11/06 02:01:03;;;;;;;15.17;13.40;;;6.10;99.90;;;;;;5050428;28;20551;-64
2021/11/06 02:03:30;;;;;;;24.00;12.57;;;6.10;99.90;;;;;;5051182;28;20185;-66
2021/11/06 02:05:55;;;;;;;18.03;12.50;;;6.10;99.90;;;;;;5050869;28;20179;-66
2021/11/06 02:08:21;;;;;;;27.97;14.50;;;6.10;99.90;;;;;;5051252;28;20185;-66
2021/11/06 02:10:47;;;;;;;23.50;14.43;;;6.20;99.90;;;;;;5050450;28;20641;-66
2021/11/06 02:13:13;;;;;;;18.47;15.23;;;6.20;99.90;;;;;;5051126;28;20254;-68
2021/11/06 02:15:39;;;;;;;25.03;14.73;;;6.20;99.90;;;;;;5050841;28;20680;-68
2021/11/06 02:18:05;;;;;;;19.00;14.13;;;6.10;99.90;;;;;;5051133;28;20190;-69
2021/11/06 02:20:32;;;;;;;16.70;13.87;;;6.20;99.90;;;;;;5050612;28;20564;-68
2021/11/06 02:22:57;;;;;;;21.23;15.80;;;6.20;99.90;;;;;;5050826;28;20663;-68
2021/11/06 02:25:24;;;;;;;20.07;13.13;;;6.10;99.90;;;;;;5051163;28;20211;-68
2021/11/06 02:27:50;;;;;;;19.10;14.67;;;6.10;99.90;;;;;;5050659;28;20191;-68
2021/11/06 02:30:17;;;;;;;16.83;14.03;;;6.10;99.90;;;;;;5050468;28;20187;-67
2021/11/06 02:32:45;;;;;;;17.17;15.37;;;6.00;99.90;;;;;;5049643;28;20213;-68
2021/11/06 02:35:12;;;;;;;25.43;14.97;;;6.00;99.90;;;;;;5050894;28;20218;-69
2021/11/06 02:37:38;;;;;;;19.10;13.63;;;6.00;99.90;;;;;;5050841;28;20167;-69
2021/11/06 02:40:06;;;;;;;26.53;15.13;;;5.90;99.90;;;;;;5051507;28;20549;-67
2021/11/06 02:42:32;;;;;;;21.30;13.83;;;5.90;99.90;;;;;;5054583;28;20174;-68
2021/11/06 02:44:57;;;;;;;26.93;13.70;;;5.80;99.90;;;;;;5054150;28;20203;-68
2021/11/06 02:47:23;;;;;;;20.90;14.53;;;5.90;99.90;;;;;;5054488;28;20175;-67
2021/11/06 02:49:49;;;;;;;19.83;14.80;;;5.80;99.90;;;;;;5053963;28;20576;-67
2021/11/06 02:52:14;;;;;;;20.47;15.63;;;5.90;99.90;;;;;;5054440;28;20187;-68
2021/11/06 02:54:40;;;;;;;24.90;16.57;;;5.90;99.90;;;;;;5053801;28;20218;-66
2021/11/06 02:57:10;;;;;;;22.73;16.10;;;5.90;99.90;;;;;;5054308;28;20175;-68
2021/11/06 02:59:35;;;;;;;20.17;14.73;;;5.90;99.90;;;;;;5053853;28;20194;-65
2021/11/06 03:02:01;;;;;;;16.07;14.33;;;5.90;99.90;;;;;;5054186;28;20288;-66
2021/11/06 03:04:27;;;;;;;23.80;14.63;;;5.80;99.90;;;;;;5054134;28;20194;-66
2021/11/06 03:06:52;;;;;;;25.27;14.47;;;5.80;99.90;;;;;;5054006;28;20167;-69
2021/11/06 03:09:18;;;;;;;18.03;14.20;;;5.70;99.90;;;;;;5053593;28;20175;-66
2021/11/06 03:11:44;;;;;;;23.70;15.33;;;5.70;99.90;;;;;;5054021;28;20217;-66
2021/11/06 03:14:12;;;;;;;19.63;15.23;;;5.70;99.90;;;;;;5053653;28;20288;-65
2021/11/06 03:16:40;;;;;;;34.07;16.17;;;5.70;99.90;;;;;;5054043;28;20621;-66
2021/11/06 03:19:06;;;;;;;18.93;14.27;;;5.70;99.90;;;;;;5053483;28;20258;-65
2021/11/06 03:21:32;;;;;;;25.13;16.77;;;5.70;99.90;;;;;;5053728;28;20266;-64
2021/11/06 03:23:57;;;;;;;25.13;15.93;;;5.70;99.90;;;;;;5053438;28;20301;-64
2021/11/06 03:26:23;;;;;;;31.83;17.43;;;5.70;99.90;;;;;;5053842;28;20183;-67
2021/11/06 03:28:49;;;;;;;27.03;15.90;;;5.70;99.90;;;;;;5053061;28;20190;-66
2021/11/06 03:31:14;;;;;;;21.97;14.67;;;5.70;99.90;;;;;;5053440;28;20163;-66
2021/11/06 03:33:40;;;;;;;23.53;15.03;;;5.70;99.90;;;;;;5053317;28;20297;-65
2021/11/06 03:36:05;;;;;;;19.37;14.60;;;5.70;99.90;;;;;;5053605;28;20188;-66
2021/11/06 03:38:31;;;;;;;20.97;14.60;;;5.70;99.90;;;;;;5053467;28;20198;-65
2021/11/06 03:40:57;;;;;;;24.70;14.10;;;5.60;99.90;;;;;;5053046;28;20182;-65
2021/11/06 03:43:22;;;;;;;25.00;15.70;;;5.60;99.90;;;;;;5053501;28;20214;-66
2021/11/06 03:45:48;;;;;;;29.10;14.80;;;5.60;99.90;;;;;;5033849;28;20175;-64
2021/11/06 03:48:14;;;;;;;25.20;15.43;;;5.60;99.90;;;;;;5033491;28;20195;-64
2021/11/06 03:50:39;;;;;;;23.17;15.20;;;5.60;99.90;;;;;;5045934;28;20252;-64
2021/11/06 03:53:06;;;;;;;29.83;14.50;;;5.60;99.90;;;;;;5052507;28;20181;-64
2021/11/06 03:55:31;;;;;;;19.67;15.03;;;5.60;99.90;;;;;;5053311;28;20206;-65
2021/11/06 03:57:57;;;;;;;22.37;15.43;;;5.60;99.90;;;;;;5053176;28;20559;-64
2021/11/06 04:00:23;;;;;;;23.23;16.40;;;5.50;99.90;;;;;;5051789;28;20183;-63
2021/11/06 04:02:49;;;;;;;33.50;17.43;;;5.50;99.90;;;;;;5053046;28;20171;-64
2021/11/06 04:05:16;;;;;;;32.13;16.23;;;5.60;99.90;;;;;;5052634;28;20222;-65
2021/11/06 04:07:42;;;;;;;27.70;16.07;;;5.60;99.90;;;;;;5053092;28;20190;-64
2021/11/06 04:10:09;;;;;;;25.23;16.90;;;5.60;99.90;;;;;;5052446;28;20183;-64
2021/11/06 04:12:36;;;;;;;30.63;15.43;;;5.50;99.90;;;;;;5052973;28;20186;-64
2021/11/06 04:15:03;;;;;;;25.73;14.67;;;5.50;99.90;;;;;;5051999;28;20206;-64
2021/11/06 04:17:29;;;;;;;26.67;16.83;;;5.50;99.90;;;;;;5052572;28;20252;-65
2021/11/06 04:19:55;;;;;;;24.83;16.33;;;5.50;99.90;;;;;;5052481;28;20178;-65
2021/11/06 04:22:20;;;;;;;23.07;16.10;;;5.50;99.90;;;;;;5052748;28;20220;-63
2021/11/06 04:24:46;;;;;;;20.63;15.60;;;5.50;99.90;;;;;;5052303;28;20211;-63
2021/11/06 04:27:11;;;;;;;18.63;14.67;;;5.50;99.90;;;;;;5052558;28;20221;-64
2021/11/06 04:29:37;;;;;;;27.53;16.23;;;5.40;99.90;;;;;;5052067;28;20190;-64
2021/11/06 04:32:04;;;;;;;20.97;15.67;;;5.40;99.90;;;;;;5052405;28;20300;-63
2021/11/06 04:34:30;;;;;;;25.70;15.90;;;5.30;99.90;;;;;;5052009;28;20214;-64
2021/11/06 04:36:56;;;;;;;23.97;16.07;;;5.20;99.90;;;;;;5052221;28;20663;-64
2021/11/06 04:39:21;;;;;;;19.63;14.97;;;5.20;99.90;;;;;;5051907;28;20175;-64
2021/11/06 04:41:47;;;;;;;21.90;16.73;;;5.10;99.90;;;;;;5052298;28;20269;-64
2021/11/06 04:44:13;;;;;;;22.80;15.40;;;5.10;99.90;;;;;;5051955;28;20225;-63
2021/11/06 04:46:39;;;;;;;17.00;15.07;;;5.00;99.90;;;;;;5051808;28;20183;-64
2021/11/06 04:49:05;;;;;;;23.13;13.97;;;5.00;99.90;;;;;;5050949;28;20175;-64
2021/11/06 04:51:30;;;;;;;20.63;15.73;;;4.90;99.90;;;;;;5051697;28;20620;-64
2021/11/06 04:53:56;;;;;;;21.80;14.67;;;4.90;99.90;;;;;;5051333;28;20702;-63
2021/11/06 04:56:22;;;;;;;16.60;13.63;;;4.80;99.90;;;;;;5051910;28;20313;-63
2021/11/06 04:58:48;;;;;;;24.10;14.30;;;4.80;99.90;;;;;;5051660;28;20178;-64
2021/11/06 05:01:13;;;;;;;17.13;13.30;;;4.80;99.90;;;;;;5051410;28;20179;-65
2021/11/06 05:03:39;;;;;;;22.13;14.80;;;4.70;99.90;;;;;;5050957;28;20667;-64
2021/11/06 05:06:05;;;;;;;20.87;15.03;;;4.60;99.90;;;;;;5051632;28;20179;-63
2021/11/06 05:08:30;;;;;;;17.97;15.03;;;4.50;99.90;;;;;;5050563;28;20186;-65
2021/11/06 05:10:56;;;;;;;18.20;15.13;;;4.50;99.90;;;;;;5051411;28;20181;-64
2021/11/06 05:13:22;;;;;;;18.83;14.97;;;4.50;99.90;;;;;;5051484;28;20178;-63
2021/11/06 05:15:48;;;;;;;19.13;14.10;;;4.50;99.90;;;;;;5051337;28;20668;-63
2021/11/06 05:18:15;;;;;;;19.80;14.27;;;4.40;99.90;;;;;;5051759;28;20628;-63
2021/11/06 05:20:43;;;;;;;18.70;14.17;;;4.40;99.90;;;;;;5051104;28;20167;-64
2021/11/06 05:23:08;;;;;;;21.70;14.23;;;4.30;99.90;;;;;;5051544;28;20648;-64
2021/11/06 05:25:34;;;;;;;22.47;14.93;;;4.40;99.90;;;;;;5051277;28;20212;-63
2021/11/06 05:27:59;;;;;;;19.80;14.93;;;4.30;99.90;;;;;;5051330;28;20205;-64
2021/11/06 05:30:25;;;;;;;16.73;13.37;;;4.30;99.90;;;;;;5051051;28;20529;-63
2021/11/06 05:32:51;;;;;;;21.93;14.20;;;4.30;99.90;;;;;;5051510;28;20274;-64
2021/11/06 05:35:16;;;;;;;17.43;13.50;;;4.30;99.90;;;;;;5050965;28;20255;-63
2021/11/06 05:37:42;;;;;;;21.13;14.40;;;4.30;99.90;;;;;;5051417;28;20167;-64
2021/11/06 05:40:10;;;;;;;19.77;14.47;;;4.30;99.90;;;;;;5050655;28;20178;-63
2021/11/06 05:42:36;;;;;;;18.10;13.73;;;4.40;99.90;;;;;;5051163;28;20217;-63
2021/11/06 05:45:04;;;;;;;21.83;14.67;;;4.40;99.90;;;;;;5051040;28;20542;-64
2021/11/06 05:47:29;;;;;;;21.43;14.90;;;4.40;99.90;;;;;;5051191;28;20178;-64
2021/11/06 05:49:55;;;;;;;20.90;16.10;;;4.30;99.90;;;;;;5051074;28;20278;-64
2021/11/06 05:52:21;;;;;;;19.97;15.10;;;4.40;99.90;;;;;;5051066;28;20170;-64
2021/11/06 05:54:47;;;;;;;16.00;13.07;;;4.30;99.90;;;;;;5050967;28;20249;-63
2021/11/06 05:57:12;;;;;;;25.60;15.73;;;4.40;99.90;;;;;;5051095;28;20199;-66
2021/11/06 05:59:38;;;;;;;21.33;15.30;;;4.40;99.90;;;;;;5050708;28;20178;-66
2021/11/06 06:02:04;;;;;;;26.70;15.93;;;4.40;99.90;;;;;;5051111;28;20167;-65
2021/11/06 06:04:29;;;;;;;18.20;14.17;;;4.30;99.90;;;;;;5049614;28;20203;-65
2021/11/06 06:06:55;;;;;;;21.90;14.73;;;4.40;99.90;;;;;;5051120;28;20518;-66
2021/11/06 06:09:21;;;;;;;18.70;14.00;;;4.30;99.90;;;;;;5050385;28;20685;-66
2021/11/06 06:11:47;;;;;;;17.37;14.13;;;4.20;99.90;;;;;;5051224;28;20178;-67
2021/11/06 06:14:13;;;;;;;26.30;14.73;;;4.20;99.90;;;;;;5050968;28;20249;-65
2021/11/06 06:16:38;;;;;;;18.47;13.73;;;4.10;99.90;;;;;;5055048;28;20175;-66
2021/11/06 06:19:04;;;;;;;16.43;14.73;;;4.10;99.90;;;;;;5054248;28;20183;-65
2021/11/06 06:21:30;;;;;;;19.13;14.53;;;4.20;99.90;;;;;;5055040;28;20293;-66
2021/11/06 06:23:57;;;;;;;16.57;13.80;;;4.30;99.90;;;;;;5054624;28;20267;-66
2021/11/06 06:26:23;;;;;;;17.30;14.10;;;4.30;99.90;;;;;;5054915;28;20167;-65
2021/11/06 06:28:48;;;;;;;20.20;13.10;;;4.30;99.90;;;;;;5054490;28;20185;-67
2021/11/06 06:31:15;;;;;;;16.57;13.33;;;4.40;99.90;;;;;;5054466;28;20263;-66
2021/11/06 06:33:40;;;;;;;25.07;14.13;;;4.40;99.90;;;;;;5054359;28;20195;-65
2021/11/06 06:36:06;;;;;;;19.17;13.30;;;4.40;99.90;;;;;;5054484;28;20534;-66
2021/11/06 06:38:33;;;;;;;21.10;13.73;;;4.40;99.90;;;;;;5054682;28;20179;-68
2021/11/06 06:40:59;;;;;;;19.50;13.87;;;4.40;99.90;;;;;;5054095;28;20778;-69
2021/11/06 06:43:25;;;;;;;22.90;14.23;;;4.30;99.90;;;;;;5054527;28;20171;-67
2021/11/06 06:45:51;;;;;;;15.57;13.23;;;4.30;99.90;;;;;;5054758;28;20214;-67
2021/11/06 06:48:17;;;;;;;18.30;14.30;;;4.30;99.90;;;;;;5054454;28;20175;-67
2021/11/06 06:50:46;;;;;;;17.30;15.27;;;4.30;99.90;;;;;;5041650;28;20199;-64
2021/11/06 06:53:13;;;;;;;19.37;13.93;;;4.40;99.90;;;;;;5052779;28;20277;-68
2021/11/06 06:55:39;;;;;;;16.87;13.27;;;4.40;99.90;;;;;;5055286;28;20289;-67
2021/11/06 06:58:05;;;;;;;16.93;14.03;;;4.40;99.90;;;;;;5055962;28;20533;-68
2021/11/06 07:00:31;;;;;;;14.83;13.27;;;4.50;99.90;;;;;;5055065;28;20171;-68
2021/11/06 07:02:56;;;;;;;13.80;12.30;;;4.50;99.90;;;;;;5054544;28;20652;-68
2021/11/06 07:05:22;;;;;;;18.77;14.53;;;4.60;99.90;;;;;;5055156;28;20214;-68
2021/11/06 07:07:48;;;;;;;19.60;15.20;;;4.60;99.90;;;;;;5054526;28;20241;-67
2021/11/06 07:10:14;;;;;;;20.30;14.33;;;4.70;99.90;;;;;;5054912;28;20645;-68
2021/11/06 07:12:41;;;;;;;19.37;15.20;;;4.70;99.90;;;;;;5054800;28;20549;-68
2021/11/06 07:15:07;;;;;;;17.17;13.73;;;4.80;99.90;;;;;;5054364;28;20213;-68
2021/11/06 07:17:34;;;;;;;20.50;13.77;;;4.90;99.90;;;;;;5054690;28;20209;-68
2021/11/06 07:19:59;;;;;;;25.70;15.83;;;4.90;99.90;;;;;;5054111;28;20256;-66
2021/11/06 07:22:25;;;;;;;18.13;14.13;;;5.00;99.90;;;;;;5054236;28;20195;-67
2021/11/06 07:24:51;;;;;;;16.47;13.40;;;5.10;99.90;;;;;;5054383;28;20201;-68
2021/11/06 07:27:16;;;;;;;17.10;13.23;;;5.20;99.90;;;;;;5053210;28;20183;-68
2021/11/06 07:29:42;;;;;;;13.53;12.03;;;5.30;99.90;;;;;;5054097;28;20276;-66
2021/11/06 07:32:08;;;;;;;16.33;12.60;;;5.40;99.90;;;;;;5053319;28;20187;-67
2021/11/06 07:34:34;;;;;;;19.70;13.57;;;5.50;99.90;;;;;;5053499;28;20202;-65
2021/11/06 07:36:59;;;;;;;20.63;12.83;;;5.50;99.90;;;;;;5053177;28;20179;-66
2021/11/06 07:39:26;;;;;;;18.23;13.33;;;5.60;99.90;;;;;;5053096;28;20178;-65
2021/11/06 07:41:53;;;;;;;18.83;13.50;;;5.70;99.90;;;;;;5053061;28;20201;-66
2021/11/06 07:44:19;;;;;;;19.13;14.33;;;6.10;99.90;;;;;;5053206;28;20194;-65
2021/11/06 07:46:45;;;;;;;17.90;13.30;;;6.40;99.90;;;;;;5052936;28;20189;-66
2021/11/06 07:49:10;;;;;;;18.20;12.37;;;6.80;99.90;;;;;;5040591;28;20184;-68
2021/11/06 07:51:37;;;;;;;17.77;12.97;;;7.20;99.90;;;;;;5033425;28;20207;-66
2021/11/06 07:54:03;;;;;;;17.23;13.63;;;7.70;99.90;;;;;;5038597;28;20240;-65
2021/11/06 07:56:28;;;;;;;18.10;14.37;;;8.20;99.90;;;;;;5053212;28;20240;-67
2021/11/06 07:58:55;;;;;;;17.07;12.30;;;8.50;99.90;;;;;;5052616;28;20175;-66
2021/11/06 08:01:21;;;;;;;14.30;11.23;;;8.90;99.90;;;;;;5050944;28;20190;-67
2021/11/06 08:03:47;;;;;;;14.03;11.33;;;9.30;99.90;;;;;;5052742;28;20218;-63
2021/11/06 08:06:12;;;;;;;11.90;10.63;;;9.50;99.90;;;;;;5052887;28;20599;-65
2021/11/06 08:08:38;;;;;;;12.87;10.03;;;9.90;99.90;;;;;;5052815;28;20206;-66
2021/11/06 08:11:04;;;;;;;11.53;9.40;;;10.10;99.90;;;;;;5052492;28;20261;-65
2021/11/06 08:13:32;;;;;;;10.60;9.47;;;10.50;99.90;;;;;;5052434;28;20289;-65
2021/11/06 08:15:58;;;;;;;10.87;9.20;;;10.80;99.90;;;;;;5052618;28;20166;-65
2021/11/06 08:18:23;;;;;;;9.63;8.73;;;11.20;99.90;;;;;;5052489;28;20290;-66
2021/11/06 08:20:50;;;;;;;9.40;8.60;;;11.30;99.90;;;;;;5052319;28;20186;-66
2021/11/06 08:23:16;;;;;;;8.87;7.80;;;11.40;99.90;;;;;;5052212;28;20269;-67
2021/11/06 08:25:42;;;;;;;8.50;7.80;;;11.50;99.90;;;;;;5052703;28;20258;-67
2021/11/06 08:28:09;;;;;;;8.27;7.43;;;11.30;99.90;;;;;;5052257;28;20178;-68
2021/11/06 08:30:35;;;;;;;8.00;7.23;;;11.20;99.90;;;;;;5052309;28;20171;-65
2021/11/06 08:33:01;;;;;;;8.07;7.40;;;11.00;99.90;;;;;;5051199;28;20205;-65
2021/11/06 08:35:29;;;;;;;7.47;6.90;;;11.00;99.90;;;;;;5051664;28;20215;-66
2021/11/06 08:37:56;;;;;;;8.50;7.07;;;11.20;99.90;;;;;;5052117;28;20661;-66
2021/11/06 08:40:22;;;;;;;7.63;6.40;;;11.40;99.90;;;;;;5052381;28;20254;-65
2021/11/06 08:42:48;;;;;;;6.93;6.40;;;11.80;99.90;;;;;;5052203;28;20522;-65
2021/11/06 08:45:15;;;;;;;6.97;6.47;;;12.30;99.90;;;;;;5052036;28;20198;-65
2021/11/06 08:47:42;;;;;;;6.67;6.10;;;12.50;99.90;;;;;;5052329;28;20179;-66
2021/11/06 08:50:11;;;;;;;6.73;6.33;;;12.60;99.90;;;;;;5051931;28;20217;-66
2021/11/06 08:52:37;;;;;;;6.57;6.17;;;12.90;99.90;;;;;;5052385;28;20181;-66
2021/11/06 08:55:04;;;;;;;6.70;6.20;;;13.20;99.90;;;;;;5051900;28;20211;-66
2021/11/06 08:57:29;;;;;;;6.60;6.03;;;13.30;99.90;;;;;;5052182;28;20187;-66
2021/11/06 09:00:00;;;;;;;6.77;6.27;;;13.30;99.90;;;;;;5051902;28;20278;-66
2021/11/06 09:02:26;;;;;;;6.20;5.80;;;13.20;99.90;;;;;;5052141;28;20528;-66
2021/11/06 09:04:52;;;;;;;6.33;5.93;;;13.40;99.90;;;;;;5052035;28;20192;-66
2021/11/06 09:07:18;;;;;;;6.67;6.20;;;13.30;99.90;;;;;;5051740;28;20183;-65
2021/11/06 09:09:45;;;;;;;6.83;6.33;;;13.10;99.90;;;;;;5051635;28;20174;-66
2021/11/06 09:12:11;;;;;;;7.13;6.43;;;12.90;99.90;;;;;;5051698;28;20178;-65
2021/11/06 09:14:37;;;;;;;6.50;6.00;;;12.70;99.90;;;;;;5051648;28;20199;-64
2021/11/06 09:17:03;;;;;;;6.60;6.03;;;12.60;99.90;;;;;;5051814;28;20216;-66
2021/11/06 09:19:28;;;;;;;5.80;5.40;;;12.70;99.90;;;;;;5050640;28;20488;-66
2021/11/06 09:21:54;;;;;;;6.07;5.67;;;12.90;99.90;;;;;;5051673;28;20174;-68
2021/11/06 09:24:20;;;;;;;6.03;5.63;;;13.00;99.90;;;;;;5051912;28;20191;-68
2021/11/06 09:26:46;;;;;;;5.80;5.40;;;13.10;99.90;;;;;;5051526;28;20178;-64
2021/11/06 09:29:16;;;;;;;6.00;5.57;;;13.20;99.90;;;;;;5051133;28;20642;-66
2021/11/06 09:31:42;;;;;;;6.23;5.80;;;13.20;99.90;;;;;;5051433;28;20175;-64
2021/11/06 09:34:10;;;;;;;7.20;6.60;;;13.10;99.90;;;;;;5051087;28;20207;-64
2021/11/06 09:36:37;;;;;;;6.20;5.80;;;13.10;99.90;;;;;;5051449;28;20205;-66
2021/11/06 09:39:08;;;;;;;6.17;5.77;;;13.20;99.90;;;;;;5050965;28;20171;-66
2021/11/06 09:41:34;;;;;;;6.07;5.67;;;13.10;99.90;;;;;;5051262;28;20579;-66
2021/11/06 09:44:00;;;;;;;5.87;5.47;;;13.20;99.90;;;;;;5051038;28;20194;-67
2021/11/06 09:46:26;;;;;;;6.40;6.00;;;13.60;99.90;;;;;;5050552;28;20289;-65
2021/11/06 09:48:51;;;;;;;5.60;5.20;;;13.70;99.90;;;;;;5050950;28;20175;-66
2021/11/06 09:51:21;;;;;;;6.30;5.80;;;13.90;99.90;;;;;;5046928;28;20337;-67
2021/11/06 09:53:50;;;;;;;6.33;5.83;;;13.90;99.90;;;;;;5083361;22;20199;-65
2021/11/06 09:56:19;;;;;;;6.10;5.60;;;13.80;99.90;;;;;;5090426;28;20532;-65
2021/11/06 09:58:45;;;;;;;6.20;5.67;;;13.70;99.90;;;;;;5091449;28;20168;-65
2021/11/06 10:01:12;;;;;;;6.00;5.60;;;13.70;99.90;;;;;;5091078;28;20166;-65
2021/11/06 10:03:38;;;;;;;5.70;5.30;;;13.60;99.90;;;;;;5091541;28;20176;-65
2021/11/06 10:06:05;;;;;;;6.07;5.43;;;13.70;99.90;;;;;;5072591;28;20169;-65
2021/11/06 10:08:35;;;;;;;5.63;5.33;;;13.70;99.90;;;;;;5090256;28;20631;-65
2021/11/06 10:11:05;;;;;;;5.20;4.90;;;13.80;99.90;;;;;;5089866;28;20192;-65
2021/11/06 10:13:31;;;;;;;5.93;5.53;;;14.00;99.90;;;;;;5089544;28;20219;-64
2021/11/06 10:15:59;;;;;;;5.53;5.13;;;14.30;99.90;;;;;;5089458;28;20673;-65
2021/11/06 10:18:29;;;;;;;5.50;5.20;;;14.40;99.90;;;;;;5090740;28;20173;-65
2021/11/06 10:21:00;;;;;;;5.27;4.90;;;14.40;99.90;;;;;;5090886;28;20162;-65
2021/11/06 10:23:31;;;;;;;5.17;4.83;;;14.40;99.90;;;;;;5091342;28;20190;-65
2021/11/06 10:26:15;;;;;;;5.90;5.40;;;14.80;99.90;;;;;;5090879;28;20172;-65
2021/11/06 10:28:42;;;;;;;5.90;5.50;;;15.10;99.90;;;;;;5090578;28;20184;-64
2021/11/06 10:31:08;;;;;;;5.77;5.37;;;15.10;99.90;;;;;;5090108;28;20184;-65
2021/11/06 10:33:48;;;;;;;5.53;5.20;;;15.20;99.90;;;;;;5091236;28;20185;-65
2021/11/06 10:36:25;;;;;;;5.43;5.13;;;15.00;99.90;;;;;;5089886;28;20185;-64
2021/11/06 10:39:05;;;;;;;7.10;6.60;;;14.70;99.90;;;;;;5090375;28;20180;-65
2021/11/06 10:41:33;;;;;;;6.10;5.70;;;14.40;99.90;;;;;;5089543;28;20176;-64
2021/11/06 10:43:59;;;;;;;5.90;5.50;;;14.20;99.90;;;;;;5091295;28;20250;-64
2021/11/06 10:46:29;;;;;;;7.23;5.17;;;14.20;99.90;;;;;;5091045;28;20177;-65
2021/11/06 10:48:56;;;;;;;5.20;4.90;;;14.20;99.90;;;;;;5091030;28;20188;-65
2021/11/06 10:51:22;;;;;;;5.87;5.47;;;14.40;99.90;;;;;;5090507;28;20178;-65
2021/11/06 10:53:50;;;;;;;5.30;4.90;;;14.70;99.90;;;;;;5090816;28;20178;-65
2021/11/06 10:56:24;;;;;;;5.10;4.80;;;15.10;99.90;;;;;;5089636;28;20184;-65
2021/11/06 10:58:52;;;;;;;5.40;5.10;;;15.20;99.90;;;;;;5090983;28;20172;-64
2021/11/06 11:01:27;;;;;;;6.30;5.90;;;15.20;99.90;;;;;;5090531;28;20546;-65
2021/11/06 11:04:01;;;;;;;6.13;5.73;;;15.10;99.90;;;;;;5094525;28;20196;-65
2021/11/06 11:06:34;;;;;;;5.50;5.20;;;14.90;99.90;;;;;;5094358;28;20169;-65
2021/11/06 11:09:00;;;;;;;6.20;5.70;;;15.10;99.90;;;;;;5094009;28;20181;-65
2021/11/06 11:11:32;;;;;;;5.30;4.90;;;15.10;99.90;;;;;;5094596;28;20162;-65
2021/11/06 11:14:05;;;;;;;5.40;5.07;;;15.20;99.90;;;;;;5093925;28;20205;-65
2021/11/06 11:16:33;;;;;;;5.50;5.20;;;15.20;99.90;;;;;;5094628;28;20169;-65
2021/11/06 11:19:18;;;;;;;6.10;5.70;;;15.20;99.90;;;;;;5093740;28;20176;-65
2021/11/06 11:21:46;;;;;;;5.47;5.10;;;14.90;99.90;;;;;;5094306;28;20196;-65
2021/11/06 11:24:15;;;;;;;5.60;5.30;;;15.00;99.90;;;;;;5094106;28;20201;-65
2021/11/06 11:26:46;;;;;;;5.60;5.20;;;15.00;99.90;;;;;;5093077;28;20174;-65
2021/11/06 11:29:17;;;;;;;5.67;5.27;;;15.00;99.90;;;;;;5093500;28;20278;-65
2021/11/06 11:31:43;;;;;;;5.30;5.00;;;15.20;99.90;;;;;;5094009;28;20169;-65
2021/11/06 11:34:09;;;;;;;5.10;4.80;;;15.30;99.90;;;;;;5093509;28;20658;-65
2021/11/06 11:36:37;;;;;;;4.97;4.67;;;15.40;99.90;;;;;;5093971;28;20161;-66
2021/11/06 11:39:09;;;;;;;5.47;5.17;;;15.70;99.90;;;;;;5090901;28;20231;-65
2021/11/06 11:41:49;;;;;;;5.60;5.30;;;16.00;99.90;;;;;;5093648;28;20183;-65
2021/11/06 11:44:20;;;;;;;5.00;4.60;;;16.20;99.90;;;;;;5092332;28;21470;-65
2021/11/06 11:47:00;;;;;;;5.27;4.93;;;16.60;99.90;;;;;;5092969;28;20550;-65
2021/11/06 11:49:32;;;;;;;5.03;4.73;;;16.90;99.90;;;;;;5083876;28;20242;-65
2021/11/06 11:52:17;;;;;;;5.10;4.70;;;16.80;99.90;;;;;;5092913;28;20177;-66
2021/11/06 11:55:06;;;;;;;5.03;4.73;;;16.80;99.90;;;;;;5092304;28;20315;-65
2021/11/06 11:57:34;;;;;;;4.90;4.70;;;16.40;99.90;;;;;;5065302;28;20197;-65
2021/11/06 12:00:00;;;;;;;5.00;4.70;;;16.30;99.90;;;;;;5070444;28;20481;-65
2021/11/06 12:02:31;;;;;;;4.87;4.67;;;16.00;99.90;;;;;;5073293;28;20180;-65
2021/11/06 12:05:15;;;;;;;4.97;4.70;;;16.20;99.90;;;;;;5091236;28;20204;-65
2021/11/06 12:07:42;;;;;;;5.30;5.00;;;15.70;99.90;;;;;;5092959;28;20283;-66
2021/11/06 12:10:31;;;;;;;5.40;5.03;;;15.50;99.90;;;;;;5092440;28;20290;-65
2021/11/06 12:12:57;;;;;;;5.83;5.53;;;15.30;99.90;;;;;;5092199;28;20193;-65
2021/11/06 12:15:59;;;;;;;5.27;4.97;;;15.20;99.90;;;;;;5092251;28;20677;-65
2021/11/06 12:18:36;;;;;;;5.53;5.23;;;15.20;99.90;;;;;;5089413;28;20268;-65
2021/11/06 12:21:18;;;;;;;5.70;5.40;;;15.10;99.90;;;;;;5092600;28;20180;-66
2021/11/06 12:23:50;;;;;;;5.30;5.00;;;15.10;99.90;;;;;;5087961;28;20264;-65
2021/11/06 12:26:21;;;;;;;5.60;5.30;;;15.30;99.90;;;;;;5092969;28;20184;-65
2021/11/06 12:28:48;;;;;;;5.03;4.73;;;15.30;99.90;;;;;;5092931;28;20166;-65
2021/11/06 12:31:30;;;;;;;5.40;5.10;;;15.40;99.90;;;;;;5092139;28;20181;-65
2021/11/06 12:33:57;;;;;;;4.90;4.60;;;15.50;99.90;;;;;;5091936;28;20292;-65
2021/11/06 12:36:25;;;;;;;5.10;4.80;;;15.40;99.90;;;;;;5092928;28;20165;-65
2021/11/06 12:38:52;;;;;;;5.30;4.83;;;15.30;99.90;;;;;;5091573;28;20199;-65
2021/11/06 12:41:37;;;;;;;5.10;4.80;;;15.20;99.90;;;;;;5092361;28;20166;-66